Time;durP1;ratioP1;P1;durP2;ratioP2;P2;SDS_P1;SDS_P2;PMS_P1;PMS_P2;Temp;Humidity;BMP_temperature;BMP_pressure;BME280_temperature;BME280_humidity;BME280_pressure;Samples;Min_cycle;Max_cycle;Signal;HPM_P1;HPM_P2
2023/01/18 00:01:08;;;;;;;14.75;7.88;;;20.10;59.70;;;;;;5069105;28;20031;-73
2023/01/18 00:03:35;;;;;;;13.07;7.32;;;20.10;59.70;;;;;;5034791;28;20055;-73
2023/01/18 00:06:03;;;;;;;12.88;7.18;;;20.10;59.60;;;;;;5063816;28;20462;-75
2023/01/18 00:08:31;;;;;;;20.73;8.02;;;20.10;59.70;;;;;;5089130;28;20589;-73
2023/01/18 00:11:09;;;;;;;15.93;7.00;;;20.20;59.90;;;;;;5089649;28;20453;-74
2023/01/18 00:13:36;;;;;;;14.43;7.70;;;20.20;60.00;;;;;;5088603;28;20027;-73
2023/01/18 00:16:09;;;;;;;13.35;6.50;;;20.20;59.90;;;;;;5089080;28;20052;-73
2023/01/18 00:18:34;;;;;;;13.27;7.03;;;20.20;59.70;;;;;;5053889;28;20028;-72
2023/01/18 00:21:09;;;;;;;12.40;7.43;;;20.10;59.60;;;;;;5089425;28;20560;-72
2023/01/18 00:23:36;;;;;;;17.55;7.63;;;20.10;59.40;;;;;;5070403;28;20032;-73
2023/01/18 00:26:05;;;;;;;14.27;7.50;;;20.10;59.20;;;;;;5086384;28;20031;-72
2023/01/18 00:28:31;;;;;;;20.63;8.70;;;20.00;59.00;;;;;;5083835;28;20020;-72
2023/01/18 00:30:57;;;;;;;17.55;7.90;;;19.60;47.00;;;;;;5079499;28;20037;-73
2023/01/18 00:33:23;;;;;;;20.33;7.60;;;19.20;43.60;;;;;;5079945;28;20388;-72
2023/01/18 00:35:57;;;;;;;18.00;8.40;;;18.80;42.10;;;;;;5079735;28;20093;-72
2023/01/18 00:38:23;;;;;;;15.77;7.97;;;18.60;41.30;;;;;;5079779;28;20122;-72
2023/01/18 00:40:49;;;;;;;13.38;7.80;;;18.50;41.10;;;;;;5079170;28;20099;-72
2023/01/18 00:45:59;;;;;;;14.57;7.13;;;18.80;45.80;;;;;;5076748;28;20028;-72
2023/01/18 00:48:24;;;;;;;13.13;6.93;;;19.00;47.40;;;;;;5079837;28;20046;-72
2023/01/18 00:50:50;;;;;;;13.60;6.55;;;19.20;48.20;;;;;;5061836;28;20119;-72
2023/01/18 00:53:16;;;;;;;12.85;7.10;;;19.30;48.60;;;;;;5088832;28;20032;-72
2023/01/18 00:55:42;;;;;;;14.93;6.85;;;19.40;48.70;;;;;;5087823;28;20441;-71
2023/01/18 00:58:07;;;;;;;12.18;6.80;;;19.40;48.30;;;;;;5088769;28;20032;-72
2023/01/18 01:00:33;;;;;;;15.10;7.25;;;19.50;48.50;;;;;;5088967;28;20024;-73
2023/01/18 01:02:59;;;;;;;14.75;7.10;;;19.60;48.10;;;;;;5056878;28;20028;-72
2023/01/18 01:08:16;;;;;;;15.60;6.63;;;19.60;48.70;;;;;;5068754;28;20086;-72
2023/01/18 01:10:45;;;;;;;14.93;6.13;;;19.70;49.30;;;;;;5034409;28;20043;-73
2023/01/18 01:26:53;;;;;;;14.07;5.97;;;19.70;50.30;;;;;;5056248;28;20051;-72
2023/01/18 01:29:19;;;;;;;10.82;6.03;;;19.70;50.70;;;;;;5102321;28;20103;-71
2023/01/18 01:31:45;;;;;;;12.48;6.13;;;19.70;50.80;;;;;;5086736;28;20101;-72
2023/01/18 01:34:11;;;;;;;11.13;6.10;;;19.80;51.20;;;;;;5087975;28;20035;-72
2023/01/18 01:36:36;;;;;;;12.73;6.10;;;19.80;51.20;;;;;;5088296;28;20361;-72
2023/01/18 01:39:02;;;;;;;16.98;5.80;;;19.80;51.30;;;;;;5088567;28;20060;-72
2023/01/18 01:41:31;;;;;;;13.63;6.28;;;19.80;51.60;;;;;;5088694;28;20088;-72
2023/01/18 01:43:58;;;;;;;16.48;5.85;;;19.80;51.70;;;;;;5091895;28;20020;-72
2023/01/18 01:46:47;;;;;;;11.15;5.55;;;19.80;51.90;;;;;;5073612;28;20073;-71
2023/01/18 01:49:19;;;;;;;12.85;5.70;;;19.80;51.90;;;;;;5092093;28;20028;-72
2023/01/18 01:51:56;;;;;;;13.20;6.15;;;19.80;52.10;;;;;;5073867;28;20032;-72
2023/01/18 01:54:33;;;;;;;11.60;5.40;;;19.80;52.30;;;;;;5091919;28;20024;-72
2023/01/18 01:57:04;;;;;;;14.90;5.75;;;19.80;52.40;;;;;;5091731;28;20032;-72
2023/01/18 01:59:39;;;;;;;11.07;5.63;;;19.80;52.40;;;;;;5092132;28;20427;-72
2023/01/18 02:02:05;;;;;;;10.50;5.50;;;19.80;52.50;;;;;;5091726;28;20028;-72
2023/01/18 02:04:32;;;;;;;10.85;5.35;;;19.80;52.70;;;;;;5073767;28;20172;-72
2023/01/18 02:06:58;;;;;;;14.05;5.82;;;19.80;52.80;;;;;;5073148;28;20035;-72
2023/01/18 02:09:24;;;;;;;12.48;5.10;;;19.80;53.00;;;;;;5091674;28;20028;-72
2023/01/18 02:11:53;;;;;;;10.23;5.40;;;19.80;53.00;;;;;;5091564;28;20039;-72
2023/01/18 02:14:24;;;;;;;12.68;5.10;;;19.80;53.10;;;;;;5073666;28;20024;-72
2023/01/18 02:16:58;;;;;;;10.63;5.18;;;19.80;53.10;;;;;;5091245;28;20028;-72
2023/01/18 02:20:03;;;;;;;9.57;4.97;;;19.80;53.20;;;;;;5073079;28;20395;-72
2023/01/18 02:22:33;;;;;;;14.43;5.45;;;19.80;53.40;;;;;;5073479;28;20039;-72
2023/01/18 02:25:14;;;;;;;11.27;5.30;;;19.80;53.40;;;;;;5073268;28;20552;-72
2023/01/18 02:27:49;;;;;;;10.55;5.05;;;19.80;53.50;;;;;;5091232;28;20031;-72
2023/01/18 02:30:30;;;;;;;8.80;4.75;;;19.80;53.60;;;;;;5073100;28;20032;-72
2023/01/18 02:33:21;;;;;;;14.63;5.32;;;19.80;53.70;;;;;;5090051;28;20035;-72
2023/01/18 02:35:53;;;;;;;12.05;5.50;;;19.80;53.70;;;;;;5090817;28;20030;-72
2023/01/18 02:38:26;;;;;;;10.48;4.97;;;19.80;53.90;;;;;;5073166;28;20495;-72
2023/01/18 02:41:07;;;;;;;10.90;5.20;;;19.80;53.90;;;;;;5091068;28;20472;-72
2023/01/18 02:46:30;;;;;;;14.35;5.45;;;19.80;54.30;;;;;;5090673;28;20380;-72
2023/01/18 02:49:06;;;;;;;8.18;4.90;;;19.90;54.20;;;;;;5090954;28;20039;-72
2023/01/18 02:51:32;;;;;;;9.48;4.93;;;19.90;54.30;;;;;;5090959;28;20472;-72
2023/01/18 02:53:59;;;;;;;8.35;4.85;;;19.90;54.40;;;;;;5072998;28;20036;-73
2023/01/18 02:56:54;;;;;;;11.98;4.70;;;19.90;54.60;;;;;;5090472;28;20028;-72
2023/01/18 02:59:30;;;;;;;13.95;5.00;;;19.90;54.80;;;;;;5071558;28;20036;-73
2023/01/18 03:02:10;;;;;;;14.18;5.43;;;19.90;54.90;;;;;;5090803;28;20024;-73
2023/01/18 03:04:42;;;;;;;14.68;5.13;;;19.90;55.00;;;;;;5090828;28;20028;-73
2023/01/18 03:07:20;;;;;;;10.25;4.60;;;19.90;55.00;;;;;;5090237;28;20062;-72
2023/01/18 03:09:46;;;;;;;14.77;4.95;;;19.80;55.10;;;;;;5090595;28;20052;-72
2023/01/18 03:12:47;;;;;;;11.00;5.10;;;19.90;55.20;;;;;;5090491;28;20081;-72
2023/01/18 03:15:31;;;;;;;9.25;4.75;;;19.90;55.30;;;;;;5057205;28;20500;-72
2023/01/18 03:18:04;;;;;;;11.77;4.70;;;19.90;55.30;;;;;;5072161;28;20112;-72
2023/01/18 03:20:36;;;;;;;11.18;4.80;;;19.90;55.30;;;;;;5090371;28;20024;-72
2023/01/18 03:26:09;;;;;;;8.73;4.63;;;19.80;55.30;;;;;;5090035;28;20487;-72
2023/01/18 03:34:30;;;;;;;9.32;4.85;;;19.90;55.70;;;;;;5090519;28;20118;-72
2023/01/18 03:37:01;;;;;;;10.65;4.50;;;19.90;55.70;;;;;;5071956;28;20040;-72
2023/01/18 03:39:37;;;;;;;11.40;4.97;;;19.90;55.70;;;;;;5089778;28;20119;-73
2023/01/18 03:42:16;;;;;;;9.60;4.63;;;19.90;55.70;;;;;;5090101;28;20111;-72
2023/01/18 03:44:51;;;;;;;10.98;5.20;;;19.90;55.90;;;;;;5090157;28;20035;-71
2023/01/18 03:47:17;;;;;;;10.20;4.32;;;19.90;55.90;;;;;;5089688;28;20111;-72
2023/01/18 03:49:43;;;;;;;10.40;4.90;;;19.90;56.30;;;;;;5089731;28;20050;-72
2023/01/18 03:52:16;;;;;;;16.45;5.03;;;19.90;56.30;;;;;;5089761;28;20032;-72
2023/01/18 03:54:44;;;;;;;34.22;6.22;;;19.90;56.30;;;;;;5088848;28;20154;-72
2023/01/18 03:57:22;;;;;;;15.07;5.63;;;19.90;56.50;;;;;;5088434;28;20032;-73
2023/01/18 03:59:48;;;;;;;17.50;5.03;;;19.90;56.50;;;;;;5089640;28;20074;-72
2023/01/18 04:02:15;;;;;;;17.42;5.38;;;19.90;56.50;;;;;;5071557;28;20051;-72
2023/01/18 04:04:41;;;;;;;17.08;5.28;;;19.90;56.50;;;;;;5071148;28;20032;-73
2023/01/18 04:07:07;;;;;;;13.60;5.43;;;19.90;56.50;;;;;;5089392;28;20511;-73
2023/01/18 04:09:33;;;;;;;13.13;4.53;;;19.90;56.80;;;;;;5089442;28;20518;-72
2023/01/18 04:11:59;;;;;;;25.77;5.22;;;19.90;56.60;;;;;;5089519;28;20043;-73
2023/01/18 04:14:24;;;;;;;10.60;4.30;;;19.90;56.50;;;;;;5089653;28;20039;-73
2023/01/18 04:16:50;;;;;;;11.40;5.00;;;19.90;56.60;;;;;;5089254;28;20043;-73
2023/01/18 04:19:16;;;;;;;17.88;5.03;;;19.90;56.60;;;;;;5089191;28;20042;-73
2023/01/18 04:21:42;;;;;;;9.02;4.85;;;19.90;56.50;;;;;;5088218;28;20258;-72
2023/01/18 04:24:10;;;;;;;18.15;4.65;;;19.90;56.60;;;;;;5089415;28;20042;-72
2023/01/18 04:26:36;;;;;;;10.10;4.60;;;19.90;56.60;;;;;;5088962;28;20025;-72
2023/01/18 04:29:02;;;;;;;12.57;4.38;;;19.90;56.70;;;;;;5089428;28;20056;-73
2023/01/18 04:31:28;;;;;;;11.80;4.50;;;19.80;56.60;;;;;;5109437;22;20060;-72
2023/01/18 04:33:54;;;;;;;10.38;4.45;;;19.90;56.70;;;;;;5108251;28;20059;-72
2023/01/18 04:36:21;;;;;;;12.25;4.90;;;19.90;56.70;;;;;;5108271;28;20116;-72
2023/01/18 04:38:51;;;;;;;11.50;4.68;;;19.90;56.70;;;;;;5109569;28;20036;-72
2023/01/18 04:41:17;;;;;;;10.70;4.75;;;19.90;56.70;;;;;;5109314;28;20039;-72
2023/01/18 04:43:43;;;;;;;8.73;4.32;;;19.90;56.90;;;;;;5108281;28;20027;-72
2023/01/18 04:46:08;;;;;;;10.77;4.55;;;19.90;56.70;;;;;;5109377;28;20028;-72
2023/01/18 04:48:34;;;;;;;9.55;4.22;;;19.90;56.80;;;;;;5109573;28;20027;-72
2023/01/18 04:51:00;;;;;;;8.48;4.47;;;19.90;56.70;;;;;;5108016;28;20030;-72
2023/01/18 04:53:26;;;;;;;9.88;4.40;;;19.90;56.60;;;;;;5109347;28;20106;-72
2023/01/18 04:55:52;;;;;;;12.02;4.82;;;19.90;57.30;;;;;;5108079;28;20510;-71
2023/01/18 04:58:17;;;;;;;10.07;4.80;;;19.90;56.80;;;;;;5108100;28;20023;-72
2023/01/18 05:00:43;;;;;;;7.88;4.15;;;19.90;56.80;;;;;;5109168;28;20376;-72
2023/01/18 05:03:10;;;;;;;11.15;4.75;;;19.90;56.90;;;;;;5109442;28;20023;-73
2023/01/18 05:05:36;;;;;;;10.10;4.63;;;19.90;57.10;;;;;;5099919;28;20024;-71
2023/01/18 05:08:02;;;;;;;8.95;4.25;;;19.90;57.00;;;;;;5087573;28;20070;-72
2023/01/18 05:10:29;;;;;;;10.73;4.55;;;19.90;57.00;;;;;;5069562;28;20059;-72
2023/01/18 05:12:54;;;;;;;8.10;4.15;;;19.90;57.00;;;;;;5087319;28;20032;-72
2023/01/18 05:15:20;;;;;;;7.45;4.28;;;19.90;57.10;;;;;;5087168;28;20524;-72
2023/01/18 05:17:46;;;;;;;7.10;4.13;;;19.90;57.10;;;;;;5090004;28;20051;-72
2023/01/18 05:20:12;;;;;;;9.05;3.80;;;19.90;57.10;;;;;;5091130;28;20039;-71
2023/01/18 05:22:38;;;;;;;10.98;4.57;;;19.90;57.20;;;;;;5092554;28;20052;-72
2023/01/18 05:25:05;;;;;;;12.07;4.70;;;19.90;57.20;;;;;;5091131;28;20047;-72
2023/01/18 05:27:31;;;;;;;7.95;4.05;;;19.90;57.30;;;;;;5091002;28;20095;-72
2023/01/18 05:29:58;;;;;;;9.15;4.35;;;19.90;57.30;;;;;;5091201;28;20063;-72
2023/01/18 05:32:24;;;;;;;10.63;4.70;;;19.90;57.40;;;;;;5092189;28;20028;-72
2023/01/18 05:34:50;;;;;;;7.50;4.07;;;19.90;57.30;;;;;;5092794;28;20062;-72
2023/01/18 05:37:16;;;;;;;9.55;4.13;;;19.90;57.20;;;;;;5092250;28;20059;-72
2023/01/18 05:39:41;;;;;;;14.45;4.13;;;19.90;57.40;;;;;;5074104;28;20040;-72
2023/01/18 05:42:07;;;;;;;15.80;4.40;;;19.90;57.50;;;;;;5092153;28;20027;-72
2023/01/18 05:44:33;;;;;;;10.07;4.53;;;19.90;57.70;;;;;;5092382;28;20024;-72
2023/01/18 05:47:00;;;;;;;9.90;4.10;;;19.90;57.50;;;;;;5073704;28;20038;-71
2023/01/18 05:49:27;;;;;;;9.43;4.63;;;19.90;57.40;;;;;;5092002;28;20028;-72
2023/01/18 05:51:53;;;;;;;8.23;3.92;;;19.90;57.40;;;;;;5092005;28;20032;-71
2023/01/18 05:54:18;;;;;;;8.68;4.35;;;19.90;57.30;;;;;;5090718;28;20032;-71
2023/01/18 05:56:44;;;;;;;9.38;4.30;;;19.90;57.30;;;;;;5091946;28;20032;-72
2023/01/18 05:59:12;;;;;;;10.35;4.65;;;19.90;57.30;;;;;;5091828;28;20020;-71
2023/01/18 06:01:38;;;;;;;9.48;4.57;;;19.90;57.30;;;;;;5091925;28;20361;-71
2023/01/18 06:04:04;;;;;;;11.85;4.30;;;19.90;57.40;;;;;;5073699;28;20088;-72
2023/01/18 06:06:30;;;;;;;13.60;4.82;;;19.90;57.50;;;;;;5091581;28;20028;-72
2023/01/18 06:08:56;;;;;;;11.07;4.43;;;19.90;57.50;;;;;;5091892;28;20024;-72
2023/01/18 06:11:21;;;;;;;10.38;4.72;;;19.90;57.50;;;;;;5091913;28;20491;-72
2023/01/18 06:13:47;;;;;;;10.77;4.38;;;19.90;57.60;;;;;;5090335;28;20380;-72
2023/01/18 06:16:13;;;;;;;8.32;3.97;;;19.90;57.50;;;;;;5091349;28;20028;-72
2023/01/18 06:18:40;;;;;;;11.68;4.30;;;19.90;57.60;;;;;;5073676;28;20054;-72
2023/01/18 06:21:07;;;;;;;9.48;3.97;;;19.90;57.60;;;;;;5091263;28;20028;-73
2023/01/18 06:23:34;;;;;;;11.57;4.25;;;19.90;57.70;;;;;;5091677;28;20443;-72
2023/01/18 06:26:00;;;;;;;10.80;4.38;;;19.90;57.60;;;;;;5089959;28;20502;-72
2023/01/18 06:28:26;;;;;;;8.75;4.03;;;19.90;57.90;;;;;;5091179;28;20392;-72
2023/01/18 06:30:53;;;;;;;8.02;3.85;;;19.90;57.60;;;;;;5073121;28;20080;-72
2023/01/18 06:33:20;;;;;;;7.05;3.67;;;19.90;57.60;;;;;;5091268;28;20448;-72
2023/01/18 06:35:46;;;;;;;10.60;4.60;;;19.90;57.60;;;;;;5090923;28;20103;-72
2023/01/18 06:38:12;;;;;;;8.60;4.28;;;19.90;57.50;;;;;;5090135;28;20161;-72
2023/01/18 06:40:38;;;;;;;8.68;4.13;;;19.90;57.50;;;;;;5091055;28;20128;-72
2023/01/18 06:43:06;;;;;;;9.85;3.90;;;19.80;57.60;;;;;;5091309;28;20483;-72
2023/01/18 06:45:32;;;;;;;10.18;4.22;;;19.90;57.50;;;;;;5089623;28;20113;-72
2023/01/18 06:47:58;;;;;;;7.63;3.88;;;19.90;57.50;;;;;;5091162;28;20056;-71
2023/01/18 06:50:23;;;;;;;6.63;3.60;;;19.90;57.50;;;;;;5089621;28;20461;-72
2023/01/18 06:52:50;;;;;;;9.45;4.25;;;19.90;57.50;;;;;;5090523;28;20032;-72
2023/01/18 06:55:16;;;;;;;10.75;4.38;;;19.90;57.50;;;;;;5090554;28;20062;-71
2023/01/18 06:57:42;;;;;;;9.80;4.22;;;19.90;57.50;;;;;;5089326;28;20056;-71
2023/01/18 07:00:09;;;;;;;8.77;4.00;;;19.90;57.50;;;;;;5090855;28;20436;-72
2023/01/18 07:02:35;;;;;;;8.65;4.07;;;19.80;57.40;;;;;;5089448;28;20028;-72
2023/01/18 07:05:01;;;;;;;10.77;3.85;;;19.90;57.50;;;;;;5089303;28;20172;-71
2023/01/18 07:07:27;;;;;;;9.20;4.00;;;19.90;57.60;;;;;;5072398;28;20055;-72
2023/01/18 07:09:53;;;;;;;9.75;4.35;;;19.90;57.60;;;;;;5090563;28;20519;-71
2023/01/18 07:12:19;;;;;;;13.05;4.28;;;19.80;57.60;;;;;;5090684;28;20399;-71
2023/01/18 07:14:45;;;;;;;15.45;4.60;;;19.90;57.90;;;;;;5090384;28;20028;-72
2023/01/18 07:17:12;;;;;;;7.15;3.85;;;19.90;58.70;;;;;;5088660;28;20038;-72
2023/01/18 07:19:37;;;;;;;15.35;4.15;;;19.90;57.70;;;;;;5089560;28;20024;-71
2023/01/18 07:22:03;;;;;;;10.52;3.85;;;19.90;57.80;;;;;;5090389;28;20453;-71
2023/01/18 07:24:30;;;;;;;13.13;4.07;;;19.90;57.80;;;;;;5089325;28;20065;-72
2023/01/18 07:26:58;;;;;;;21.20;4.22;;;19.90;57.70;;;;;;5089718;28;20020;-71
2023/01/18 07:29:24;;;;;;;11.25;4.28;;;19.80;57.80;;;;;;5088488;28;20028;-71
2023/01/18 07:31:50;;;;;;;10.93;4.55;;;19.90;58.00;;;;;;5090014;28;20034;-71
2023/01/18 07:34:16;;;;;;;13.43;4.45;;;19.80;57.70;;;;;;5090291;28;20435;-71
2023/01/18 07:36:42;;;;;;;9.63;4.53;;;19.80;57.80;;;;;;5089778;28;20414;-72
2023/01/18 07:39:09;;;;;;;10.18;4.13;;;19.80;57.70;;;;;;5088307;28;20031;-72
2023/01/18 07:41:35;;;;;;;10.95;4.32;;;19.80;57.70;;;;;;5088641;28;20032;-72
2023/01/18 07:44:02;;;;;;;11.50;4.32;;;19.80;57.70;;;;;;5090129;28;20403;-71
2023/01/18 07:46:27;;;;;;;16.58;4.65;;;19.80;57.70;;;;;;5089619;28;20027;-71
2023/01/18 07:48:53;;;;;;;10.75;3.92;;;19.80;57.70;;;;;;5071867;28;20032;-71
2023/01/18 07:51:21;;;;;;;9.55;4.32;;;19.80;57.70;;;;;;5089796;28;20035;-72
2023/01/18 07:53:47;;;;;;;8.75;4.20;;;19.80;57.70;;;;;;5089876;28;20036;-71
2023/01/18 07:56:17;;;;;;;13.35;4.43;;;19.90;57.70;;;;;;5089574;28;20511;-71
2023/01/18 07:58:43;;;;;;;9.02;4.15;;;19.90;57.70;;;;;;5089840;28;20028;-71
2023/01/18 08:01:20;;;;;;;12.15;4.20;;;19.80;57.60;;;;;;5089787;28;20017;-72
2023/01/18 08:03:47;;;;;;;11.00;4.18;;;19.80;57.60;;;;;;5090263;28;20032;-72
2023/01/18 08:06:17;;;;;;;14.70;4.47;;;19.80;57.60;;;;;;5089308;28;20047;-72
2023/01/18 08:08:43;;;;;;;11.32;3.85;;;19.80;57.50;;;;;;5089701;28;20111;-72
2023/01/18 08:11:10;;;;;;;12.43;4.40;;;19.80;57.50;;;;;;5088155;28;20035;-71
2023/01/18 08:13:36;;;;;;;9.80;4.20;;;19.80;57.50;;;;;;5089542;28;20472;-71
2023/01/18 08:16:05;;;;;;;10.63;4.22;;;19.80;57.50;;;;;;5088083;28;20476;-71
2023/01/18 08:18:31;;;;;;;9.20;4.32;;;19.80;57.50;;;;;;5089071;28;20039;-71
2023/01/18 08:20:57;;;;;;;13.15;4.55;;;19.80;57.40;;;;;;5089463;28;20044;-72
2023/01/18 08:23:26;;;;;;;10.82;4.15;;;19.80;57.30;;;;;;5089802;28;20077;-72
2023/01/18 08:25:52;;;;;;;8.75;3.90;;;19.80;57.40;;;;;;5071143;28;20074;-72
2023/01/18 08:28:18;;;;;;;11.80;4.03;;;19.80;57.30;;;;;;5071385;28;20039;-72
2023/01/18 08:30:46;;;;;;;12.27;4.25;;;19.80;57.40;;;;;;5088019;28;20489;-71
2023/01/18 08:33:13;;;;;;;8.32;3.95;;;19.80;57.50;;;;;;5088131;28;20118;-71
2023/01/18 08:35:46;;;;;;;10.38;4.22;;;19.80;57.40;;;;;;5088946;28;20476;-71
2023/01/18 08:38:14;;;;;;;9.38;4.10;;;19.80;57.40;;;;;;5089157;28;20568;-71
2023/01/18 08:40:40;;;;;;;9.55;3.85;;;19.80;57.60;;;;;;5088976;28;20024;-71
2023/01/18 08:43:10;;;;;;;10.63;4.35;;;19.80;57.50;;;;;;5089702;28;20031;-71
2023/01/18 08:45:36;;;;;;;9.57;4.43;;;19.80;57.50;;;;;;5088020;28;20065;-72
2023/01/18 08:48:05;;;;;;;13.05;4.50;;;19.80;57.40;;;;;;5089357;28;20107;-71
2023/01/18 08:50:32;;;;;;;14.88;4.70;;;19.80;57.60;;;;;;5089201;28;20036;-72
2023/01/18 08:52:58;;;;;;;11.40;4.25;;;19.80;57.60;;;;;;5093306;28;20039;-72
2023/01/18 08:55:25;;;;;;;8.07;4.00;;;19.80;57.50;;;;;;5092813;28;20557;-72
2023/01/18 08:57:56;;;;;;;9.65;4.25;;;19.80;57.50;;;;;;5093180;28;20183;-71
2023/01/18 09:00:29;;;;;;;12.52;4.13;;;19.80;57.40;;;;;;5091637;28;20058;-72
2023/01/18 09:02:55;;;;;;;14.70;4.63;;;19.80;57.50;;;;;;5093150;28;20063;-72
2023/01/18 09:05:23;;;;;;;11.70;4.22;;;19.80;57.70;;;;;;5092755;28;20435;-72
2023/01/18 09:07:51;;;;;;;9.23;4.10;;;19.80;57.70;;;;;;5093145;28;20032;-72
2023/01/18 09:10:17;;;;;;;11.18;4.65;;;19.80;57.60;;;;;;5092833;28;20040;-72
2023/01/18 09:12:43;;;;;;;10.90;3.83;;;19.80;57.60;;;;;;5092959;28;20039;-72
2023/01/18 09:15:09;;;;;;;7.75;4.07;;;19.80;57.50;;;;;;5092806;28;20028;-72
2023/01/18 09:17:35;;;;;;;8.30;3.90;;;19.80;57.50;;;;;;5074699;28;20028;-72
2023/01/18 09:20:00;;;;;;;8.82;3.83;;;19.80;57.40;;;;;;5092858;28;20036;-71
2023/01/18 09:22:29;;;;;;;9.35;4.22;;;19.80;57.40;;;;;;5091450;28;20036;-72
2023/01/18 09:24:56;;;;;;;9.13;4.07;;;19.80;57.50;;;;;;5092943;28;20375;-71
2023/01/18 09:27:22;;;;;;;8.35;3.63;;;19.80;57.50;;;;;;5092406;28;20048;-72
2023/01/18 09:29:51;;;;;;;9.95;4.05;;;19.80;58.20;;;;;;5092326;28;20560;-72
2023/01/18 09:32:18;;;;;;;11.40;4.47;;;19.80;57.50;;;;;;5092963;28;20039;-71
2023/01/18 09:34:48;;;;;;;10.43;3.75;;;19.70;57.50;;;;;;5092462;28;20480;-72
2023/01/18 09:37:14;;;;;;;10.57;4.00;;;19.80;57.50;;;;;;5092402;28;20032;-72
2023/01/18 09:39:39;;;;;;;9.98;3.97;;;19.80;57.50;;;;;;5090643;28;20597;-72
2023/01/18 09:42:16;;;;;;;13.95;3.97;;;19.80;57.70;;;;;;5092518;28;20549;-71
2023/01/18 09:44:44;;;;;;;10.77;4.00;;;19.80;57.70;;;;;;5092633;28;20032;-72
2023/01/18 09:47:11;;;;;;;8.82;3.67;;;19.80;57.70;;;;;;5091927;28;20024;-72
2023/01/18 09:49:50;;;;;;;13.57;3.95;;;19.80;57.70;;;;;;5090460;28;20119;-72
2023/01/18 09:52:31;;;;;;;10.35;3.88;;;19.80;57.80;;;;;;5074453;28;20264;-72
2023/01/18 09:55:15;;;;;;;7.85;3.67;;;19.80;57.90;;;;;;5092266;28;20028;-72
2023/01/18 09:57:59;;;;;;;12.98;4.40;;;19.80;57.70;;;;;;5089962;28;20032;-72
2023/01/18 10:00:28;;;;;;;9.88;4.38;;;19.80;58.00;;;;;;5086077;28;20387;-72
2023/01/18 10:02:59;;;;;;;9.75;3.92;;;19.80;58.20;;;;;;5086079;28;20487;-72
2023/01/18 10:05:33;;;;;;;11.63;4.22;;;19.80;58.10;;;;;;5089564;28;20028;-72
2023/01/18 10:08:12;;;;;;;13.73;4.05;;;19.80;58.10;;;;;;5086205;28;20388;-72
2023/01/18 10:10:53;;;;;;;20.92;5.05;;;19.80;58.30;;;;;;5061435;28;20024;-72
2023/01/18 10:13:51;;;;;;;14.90;4.40;;;19.80;58.30;;;;;;5090149;28;20383;-72
2023/01/18 10:16:17;;;;;;;12.75;4.40;;;19.80;58.50;;;;;;5086721;28;20525;-71
2023/01/18 10:18:46;;;;;;;13.13;3.92;;;19.90;58.50;;;;;;5079615;28;20032;-72
2023/01/18 10:21:17;;;;;;;;;;;19.80;58.50;;;;;;5086888;28;20038;-71
2023/01/18 10:24:02;;;;;;;14.07;4.40;;;19.80;58.90;;;;;;5071515;28;20366;-72
2023/01/18 10:26:30;;;;;;;12.82;4.22;;;19.80;59.10;;;;;;5072184;28;20028;-71
2023/01/18 10:29:29;;;;;;;24.15;4.28;;;19.90;58.90;;;;;;5071177;28;20025;-71
2023/01/18 10:32:03;;;;;;;25.30;4.80;;;19.90;60.00;;;;;;5099420;22;20036;-73
2023/01/18 10:34:34;;;;;;;22.73;4.60;;;19.90;59.10;;;;;;5085744;28;20027;-73
2023/01/18 10:37:15;;;;;;;44.05;5.15;;;19.80;59.60;;;;;;5089011;28;20575;-73
2023/01/18 10:39:49;;;;;;;26.08;4.53;;;19.80;59.70;;;;;;5069542;28;20434;-73
2023/01/18 10:42:46;;;;;;;17.85;4.85;;;19.90;59.30;;;;;;5101079;28;20020;-73
2023/01/18 10:45:18;;;;;;;17.88;4.22;;;19.90;59.40;;;;;;5090264;28;20047;-72
2023/01/18 10:47:46;;;;;;;14.95;4.20;;;20.00;61.40;;;;;;5076790;28;20024;-73
2023/01/18 10:50:37;;;;;;;19.45;4.75;;;20.00;61.00;;;;;;5088118;28;20031;-74
2023/01/18 10:53:22;;;;;;;15.65;4.47;;;20.10;63.50;;;;;;5090180;28;20096;-74
2023/01/18 10:55:55;;;;;;;17.48;5.32;;;20.10;63.10;;;;;;5071571;28;20039;-74
2023/01/18 10:58:29;;;;;;;19.23;5.25;;;20.10;62.80;;;;;;5087773;28;20084;-73
2023/01/18 11:00:57;;;;;;;13.98;3.92;;;20.00;61.50;;;;;;5086705;28;20020;-73
2023/01/18 11:03:25;;;;;;;15.63;4.85;;;20.00;60.50;;;;;;5084561;28;20421;-74
2023/01/18 11:05:51;;;;;;;23.98;4.75;;;19.90;59.70;;;;;;5087585;28;20105;-73
2023/01/18 11:08:30;;;;;;;23.35;5.40;;;20.00;59.40;;;;;;5087962;28;20534;-73
2023/01/18 11:11:09;;;;;;;18.27;4.40;;;20.00;59.30;;;;;;5086734;28;20113;-73
2023/01/18 11:13:38;;;;;;;20.13;4.68;;;20.00;59.00;;;;;;5089110;28;20475;-73
2023/01/18 11:16:20;;;;;;;17.50;5.05;;;20.00;58.80;;;;;;5088475;28;20028;-73
2023/01/18 11:18:57;;;;;;;11.50;4.00;;;20.00;58.70;;;;;;5089150;28;20483;-73
2023/01/18 11:21:25;;;;;;;13.27;4.32;;;20.00;58.50;;;;;;5089197;28;20073;-73
2023/01/18 11:23:52;;;;;;;13.73;4.10;;;20.00;59.10;;;;;;5085659;28;20038;-73
2023/01/18 11:26:20;;;;;;;17.65;3.97;;;20.00;59.70;;;;;;5090315;28;20020;-73
2023/01/18 11:29:11;;;;;;;19.35;4.07;;;20.00;59.40;;;;;;5086415;28;20607;-74
2023/01/18 11:31:45;;;;;;;16.30;4.03;;;20.00;59.10;;;;;;5090101;28;20074;-73
2023/01/18 11:34:30;;;;;;;12.65;4.60;;;20.00;59.00;;;;;;5089329;28;20533;-74
2023/01/18 11:36:57;;;;;;;13.75;4.00;;;20.00;58.90;;;;;;5069995;28;20033;-75
2023/01/18 11:39:30;;;;;;;19.80;4.10;;;20.10;59.70;;;;;;5069616;28;20560;-74
2023/01/18 11:42:29;;;;;;;16.35;4.63;;;20.10;59.50;;;;;;5068875;28;20040;-74
2023/01/18 11:45:13;;;;;;;15.48;4.30;;;20.10;60.80;;;;;;5086588;28;20106;-74
2023/01/18 11:48:03;;;;;;;12.88;3.90;;;20.10;59.80;;;;;;5092064;28;20052;-74
2023/01/18 11:50:38;;;;;;;10.70;3.65;;;20.20;59.70;;;;;;5094950;28;20060;-74
2023/01/18 11:53:49;;;;;;;13.15;4.22;;;20.10;59.80;;;;;;5088741;28;20031;-75
2023/01/18 11:56:46;;;;;;;12.60;4.13;;;20.20;60.00;;;;;;5086440;28;20046;-75
2023/01/18 11:59:34;;;;;;;13.48;4.45;;;20.20;61.80;;;;;;5073769;28;20024;-74
2023/01/18 12:02:12;;;;;;;17.58;3.83;;;20.30;60.70;;;;;;5075265;28;20425;-74
2023/01/18 12:05:16;;;;;;;16.90;3.67;;;20.30;61.20;;;;;;5071696;28;20492;-74
2023/01/18 12:08:11;;;;;;;17.17;5.82;;;20.20;60.10;;;;;;5089830;28;20050;-73
2023/01/18 12:11:01;;;;;;;14.32;5.50;;;20.20;60.10;;;;;;5087740;28;20131;-73
2023/01/18 12:13:39;;;;;;;13.13;5.63;;;20.20;60.20;;;;;;5088860;28;20047;-73
2023/01/18 12:16:15;;;;;;;15.88;5.80;;;20.20;60.20;;;;;;5088168;28;20024;-73
2023/01/18 12:18:44;;;;;;;20.70;5.85;;;20.20;60.20;;;;;;5081968;28;20039;-73
2023/01/18 12:21:22;;;;;;;12.25;5.80;;;20.10;60.50;;;;;;5085599;28;20102;-74
2023/01/18 12:24:09;;;;;;;14.88;5.30;;;20.10;60.40;;;;;;5066894;28;20490;-72
2023/01/18 12:26:53;;;;;;;14.18;5.65;;;20.10;60.50;;;;;;5085165;28;20016;-74
2023/01/18 12:29:38;;;;;;;17.35;6.15;;;20.10;60.60;;;;;;5080529;28;20038;-72
2023/01/18 12:32:22;;;;;;;14.52;5.60;;;20.20;60.30;;;;;;5076093;28;20040;-73
2023/01/18 12:35:04;;;;;;;20.27;5.82;;;20.10;60.80;;;;;;5082377;28;20039;-73
2023/01/18 12:37:50;;;;;;;13.73;5.47;;;20.10;60.70;;;;;;5083776;28;20066;-74
2023/01/18 12:40:31;;;;;;;17.58;5.50;;;20.10;60.80;;;;;;5087337;28;20119;-73
2023/01/18 12:43:09;;;;;;;14.27;5.25;;;20.10;60.80;;;;;;5087312;28;20020;-73
2023/01/18 12:45:40;;;;;;;17.50;5.32;;;20.00;60.50;;;;;;5082328;28;20150;-73
2023/01/18 12:48:23;;;;;;;15.23;5.70;;;20.00;60.50;;;;;;5084964;28;20391;-73
2023/01/18 12:50:49;;;;;;;19.77;10.43;;;19.90;60.20;;;;;;5086210;28;20028;-75
2023/01/18 12:53:41;;;;;;;34.67;19.77;;;19.90;60.30;;;;;;5086052;28;20039;-74
2023/01/18 12:56:19;;;;;;;24.30;14.18;;;19.80;59.20;;;;;;5086330;28;20073;-76
2023/01/18 12:58:56;;;;;;;27.70;16.65;;;19.80;57.50;;;;;;5084839;28;20044;-76
2023/01/18 13:01:28;;;;;;;28.52;17.92;;;19.90;56.70;;;;;;5079346;28;20119;-75
2023/01/18 13:04:00;;;;;;;26.60;14.70;;;19.90;56.00;;;;;;5086556;28;20612;-75
2023/01/18 13:06:28;;;;;;;26.55;15.77;;;19.90;56.50;;;;;;5076971;28;20024;-75
2023/01/18 13:08:59;;;;;;;23.40;15.57;;;20.00;56.50;;;;;;5081474;28;20089;-76
2023/01/18 13:11:41;;;;;;;22.70;14.27;;;20.00;56.80;;;;;;5081503;28;20028;-75
2023/01/18 13:14:28;;;;;;;27.50;15.13;;;20.00;56.90;;;;;;5083846;28;20394;-73
2023/01/18 13:16:57;;;;;;;28.00;15.60;;;20.00;56.40;;;;;;5082541;28;20476;-73
2023/01/18 13:19:28;;;;;;;21.15;14.25;;;20.00;56.50;;;;;;5086916;28;20052;-73
2023/01/18 13:22:21;;;;;;;28.00;14.05;;;20.00;56.60;;;;;;5085100;28;20040;-74
2023/01/18 13:25:01;;;;;;;23.50;14.25;;;20.00;56.70;;;;;;5066524;28;20024;-73
2023/01/18 13:27:30;;;;;;;30.58;14.32;;;20.00;56.80;;;;;;5084349;28;20488;-74
2023/01/18 13:30:07;;;;;;;23.35;14.60;;;20.00;57.00;;;;;;5085409;28;20028;-74